createdAt,value
2022-08-26T00:01:56.642Z,5.95
2022-08-26T00:04:25.867Z,6.28
2022-08-26T00:06:55.631Z,6.30
2022-08-26T00:09:24.959Z,6.60
2022-08-26T00:11:53.850Z,6.40
2022-08-26T00:14:25.038Z,6.68
2022-08-26T00:16:55.594Z,6.65
2022-08-26T00:19:22.970Z,6.78
2022-08-26T00:21:50.558Z,7.22
2022-08-26T00:24:20.730Z,6.88
2022-08-26T00:26:49.182Z,8.20
2022-08-26T00:29:17.265Z,10.82
2022-08-26T00:31:45.651Z,12.18
2022-08-26T00:34:14.095Z,11.23
2022-08-26T00:36:43.511Z,13.90
2022-08-26T00:39:11.224Z,14.93
2022-08-26T00:41:40.778Z,14.65
2022-08-26T00:44:10.941Z,15.95
2022-08-26T00:49:47.380Z,17.52
2022-08-26T00:52:21.627Z,18.58
2022-08-26T00:55:20.122Z,19.25
2022-08-26T00:57:50.580Z,18.92
2022-08-26T01:00:25.766Z,20.60
2022-08-26T01:02:55.940Z,19.75
2022-08-26T01:05:23.788Z,21.40
2022-08-26T01:07:51.159Z,21.35
2022-08-26T01:10:24.708Z,20.98
2022-08-26T01:13:05.626Z,24.83
2022-08-26T01:15:42.005Z,24.38
2022-08-26T01:18:10.757Z,25.00
2022-08-26T01:21:17.793Z,26.13
2022-08-26T01:23:57.419Z,25.75
2022-08-26T01:26:35.697Z,26.10
2022-08-26T01:29:06.303Z,25.63
2022-08-26T01:31:42.025Z,28.70
2022-08-26T01:34:22.463Z,26.88
2022-08-26T01:36:52.674Z,28.50
2022-08-26T01:39:20.263Z,28.08
2022-08-26T01:41:48.829Z,27.95
2022-08-26T01:44:25.689Z,29.67
2022-08-26T01:46:54.485Z,30.05
2022-08-26T01:49:24.588Z,26.67
2022-08-26T01:51:56.523Z,30.00
2022-08-26T01:54:25.948Z,29.60
2022-08-26T01:56:55.111Z,29.40
2022-08-26T01:59:24.793Z,28.48
2022-08-26T02:01:52.960Z,29.40
2022-08-26T02:04:23.377Z,29.58
2022-08-26T02:06:53.567Z,28.35
2022-08-26T02:09:23.527Z,29.23
2022-08-26T02:11:52.830Z,25.02
2022-08-26T02:14:33.130Z,29.92
2022-08-26T02:17:03.497Z,28.98
2022-08-26T02:19:40.295Z,28.40
2022-08-26T02:22:16.021Z,28.38
2022-08-26T02:24:58.006Z,28.10
2022-08-26T02:27:33.313Z,26.50
2022-08-26T02:30:17.452Z,26.70
2022-08-26T02:32:45.044Z,28.00
2022-08-26T02:35:18.330Z,27.05
2022-08-26T02:37:49.414Z,26.20
2022-08-26T02:40:21.820Z,25.20
2022-08-26T02:42:49.323Z,25.52
2022-08-26T02:45:23.065Z,26.27
2022-08-26T02:47:51.565Z,25.27
2022-08-26T02:50:20.633Z,26.10
2022-08-26T02:52:48.322Z,25.80
2022-08-26T02:55:16.387Z,24.98
2022-08-26T02:57:43.744Z,25.85
2022-08-26T03:00:14.672Z,26.55
2022-08-26T03:02:41.854Z,26.65
2022-08-26T03:05:10.338Z,26.77
2022-08-26T03:07:37.839Z,26.85
2022-08-26T03:10:08.704Z,26.50
2022-08-26T03:12:36.986Z,25.38
2022-08-26T03:15:17.606Z,24.88
2022-08-26T03:17:47.370Z,25.92
2022-08-26T03:20:15.740Z,26.15
2022-08-26T03:22:45.373Z,24.58
2022-08-26T03:25:16.551Z,23.13
2022-08-26T03:27:44.099Z,24.55
2022-08-26T03:30:33.603Z,23.48
2022-08-26T03:33:02.013Z,22.90
2022-08-26T03:35:31.381Z,24.08
2022-08-26T03:37:58.740Z,23.40
2022-08-26T03:40:29.173Z,23.40
2022-08-26T03:42:56.139Z,22.92
2022-08-26T03:45:23.124Z,22.52
2022-08-26T03:47:50.026Z,23.00
2022-08-26T03:50:22.710Z,22.15
2022-08-26T03:52:51.777Z,21.25
2022-08-26T03:55:23.595Z,21.48
2022-08-26T03:57:52.107Z,20.40
2022-08-26T04:00:20.210Z,22.42
2022-08-26T04:02:51.027Z,21.08
2022-08-26T04:05:22.942Z,21.40
2022-08-26T04:07:51.440Z,21.05
2022-08-26T04:10:28.971Z,21.65
2022-08-26T04:12:58.998Z,20.98
2022-08-26T04:15:27.112Z,21.50
2022-08-26T04:17:56.025Z,20.13
2022-08-26T04:20:24.866Z,21.02
2022-08-26T04:22:52.542Z,21.58
2022-08-26T04:25:20.553Z,22.13
2022-08-26T04:27:48.264Z,20.55
2022-08-26T04:30:16.712Z,18.90
2022-08-26T04:32:44.097Z,21.42
2022-08-26T04:35:11.205Z,19.10
2022-08-26T04:37:38.264Z,19.67
2022-08-26T04:40:06.533Z,19.65
2022-08-26T04:42:33.578Z,20.80
2022-08-26T04:45:05.775Z,20.35
2022-08-26T04:47:37.082Z,19.90
2022-08-26T04:50:06.877Z,19.75
2022-08-26T04:52:36.219Z,20.40
2022-08-26T04:55:04.377Z,20.20
2022-08-26T04:57:33.646Z,19.33
2022-08-26T05:00:00.567Z,20.52
2022-08-26T05:02:27.939Z,19.70
2022-08-26T05:04:54.925Z,18.55
2022-08-26T05:07:21.784Z,18.48
2022-08-26T05:09:49.207Z,19.45
2022-08-26T05:12:16.035Z,19.15
2022-08-26T05:14:43.370Z,16.83
2022-08-26T05:17:10.300Z,17.27
2022-08-26T05:19:43.023Z,16.92
2022-08-26T05:22:10.126Z,16.25
2022-08-26T05:24:41.035Z,16.45
2022-08-26T05:27:11.617Z,16.95
2022-08-26T05:29:42.492Z,16.33
2022-08-26T05:32:11.678Z,15.70
2022-08-26T05:34:38.619Z,15.15
2022-08-26T05:37:06.873Z,16.20
2022-08-26T05:39:36.143Z,14.82
2022-08-26T05:42:05.607Z,16.33
2022-08-26T05:44:51.838Z,15.65
2022-08-26T05:47:19.524Z,15.25
2022-08-26T05:49:51.428Z,16.45
2022-08-26T05:52:19.355Z,14.73
2022-08-26T05:54:47.775Z,15.40
2022-08-26T05:57:15.122Z,14.20
2022-08-26T05:59:42.132Z,14.80
2022-08-26T06:02:09.881Z,14.15
2022-08-26T06:04:36.749Z,18.88
2022-08-26T06:07:03.732Z,15.82
2022-08-26T06:09:32.862Z,14.38
2022-08-26T06:12:01.740Z,14.50
2022-08-26T06:14:29.668Z,15.35
2022-08-26T06:16:57.601Z,14.23
2022-08-26T06:19:33.128Z,14.55
2022-08-26T06:22:23.489Z,12.68
2022-08-26T06:25:09.940Z,13.10
2022-08-26T06:27:38.089Z,14.65
2022-08-26T06:30:06.671Z,13.27
2022-08-26T06:32:33.925Z,12.60
2022-08-26T06:35:00.918Z,13.23
2022-08-26T06:37:28.420Z,12.20
2022-08-26T06:39:56.198Z,12.20
2022-08-26T06:42:24.811Z,13.13
2022-08-26T06:44:51.728Z,13.18
2022-08-26T06:47:18.598Z,14.40
2022-08-26T06:49:45.449Z,13.35
2022-08-26T06:52:12.359Z,17.52
2022-08-26T06:54:43.057Z,19.17
2022-08-26T06:57:11.679Z,16.77
2022-08-26T06:59:38.979Z,16.77
2022-08-26T07:02:08.933Z,14.00
2022-08-26T07:04:41.030Z,13.05
2022-08-26T07:07:09.702Z,11.40
2022-08-26T07:09:37.364Z,12.27
2022-08-26T07:12:06.843Z,12.85
2022-08-26T07:14:34.871Z,10.02
2022-08-26T07:17:02.698Z,9.57
2022-08-26T07:19:31.420Z,9.60
2022-08-26T07:22:06.059Z,9.57
2022-08-26T07:24:36.176Z,9.00
2022-08-26T07:27:07.417Z,9.38
2022-08-26T07:29:39.088Z,8.63
2022-08-26T07:32:07.690Z,8.43
2022-08-26T07:34:36.918Z,8.02
2022-08-26T07:37:04.797Z,7.35
2022-08-26T07:39:35.851Z,7.30
2022-08-26T07:42:07.999Z,6.95
2022-08-26T07:44:37.336Z,6.60
2022-08-26T07:47:24.103Z,6.68
2022-08-26T07:49:57.278Z,6.13
2022-08-26T07:52:30.417Z,6.80
2022-08-26T07:55:00.922Z,6.70
2022-08-26T07:57:29.139Z,6.88
2022-08-26T07:59:57.380Z,6.10
2022-08-26T08:02:25.914Z,7.75
2022-08-26T08:04:53.630Z,7.63
2022-08-26T08:07:38.385Z,7.10
2022-08-26T08:10:11.765Z,7.43
2022-08-26T08:12:41.643Z,7.50
2022-08-26T08:15:13.638Z,8.05
2022-08-26T08:17:43.711Z,5.65
2022-08-26T08:20:14.082Z,5.47
2022-08-26T08:22:42.437Z,4.07
2022-08-26T08:25:12.177Z,4.40
2022-08-26T08:27:41.767Z,3.95
2022-08-26T08:30:09.760Z,3.97
2022-08-26T08:32:43.357Z,3.53
2022-08-26T08:35:13.634Z,3.55
2022-08-26T08:37:41.958Z,3.90
2022-08-26T08:40:15.360Z,4.35
2022-08-26T08:42:59.233Z,4.60
2022-08-26T08:45:49.749Z,4.40
2022-08-26T08:48:32.012Z,4.10
2022-08-26T08:51:30.457Z,3.70
2022-08-26T08:53:59.537Z,3.60
2022-08-26T08:56:41.500Z,3.70
2022-08-26T08:59:17.787Z,3.45
2022-08-26T09:02:00.893Z,3.10
2022-08-26T09:05:03.283Z,3.45
2022-08-26T09:07:50.279Z,3.85
2022-08-26T09:10:33.903Z,3.35
2022-08-26T09:13:09.203Z,3.17
2022-08-26T09:16:13.822Z,3.60
2022-08-26T09:19:07.373Z,3.08
2022-08-26T09:21:34.548Z,3.20
2022-08-26T09:24:01.614Z,3.53
2022-08-26T09:26:41.081Z,2.55
2022-08-26T09:29:31.150Z,2.92
2022-08-26T09:32:26.515Z,2.80
2022-08-26T09:35:00.771Z,2.90
2022-08-26T09:37:41.756Z,2.60
2022-08-26T09:40:24.729Z,3.55
2022-08-26T09:43:22.878Z,3.03
2022-08-26T09:45:59.288Z,2.25
2022-08-26T09:48:36.417Z,2.55
2022-08-26T09:51:30.058Z,3.00
2022-08-26T09:54:01.770Z,2.65
2022-08-26T09:56:39.208Z,2.90
2022-08-26T09:59:11.969Z,2.35
2022-08-26T10:01:42.714Z,3.15
2022-08-26T10:04:15.106Z,3.33
2022-08-26T10:07:05.599Z,2.80
2022-08-26T10:09:44.416Z,2.78
2022-08-26T10:12:21.282Z,3.35
2022-08-26T10:15:00.434Z,2.78
2022-08-26T10:17:45.554Z,3.38
2022-08-26T10:20:23.090Z,3.70
2022-08-26T10:23:12.966Z,3.22
2022-08-26T10:25:59.070Z,2.92
2022-08-26T10:28:49.052Z,3.10
2022-08-26T10:31:40.309Z,3.50
2022-08-26T10:34:10.366Z,3.28
2022-08-26T10:37:15.779Z,2.65
2022-08-26T10:39:57.112Z,2.88
2022-08-26T10:43:16.828Z,3.00
2022-08-26T10:45:51.005Z,2.95
2022-08-26T10:48:52.773Z,3.40
2022-08-26T10:51:28.144Z,3.50
2022-08-26T10:54:31.757Z,3.42
2022-08-26T10:57:12.080Z,3.15
2022-08-26T10:59:53.382Z,3.03
2022-08-26T11:02:40.465Z,3.53
2022-08-26T11:05:22.337Z,3.08
2022-08-26T11:07:54.882Z,2.90
2022-08-26T11:10:22.492Z,3.40
2022-08-26T11:13:10.999Z,2.45
2022-08-26T11:15:59.221Z,2.55
2022-08-26T11:19:18.128Z,2.22
2022-08-26T11:22:12.445Z,2.10
2022-08-26T11:24:55.053Z,1.98
2022-08-26T11:27:37.342Z,2.25
2022-08-26T11:30:30.992Z,2.20
2022-08-26T11:32:59.638Z,1.65
2022-08-26T11:35:26.470Z,2.25
2022-08-26T11:38:21.911Z,2.33
2022-08-26T11:41:08.736Z,2.25
2022-08-26T11:43:38.605Z,1.63
2022-08-26T11:46:28.645Z,2.35
2022-08-26T11:49:05.806Z,2.20
2022-08-26T11:51:40.040Z,2.50
2022-08-26T11:54:16.422Z,2.60
2022-08-26T11:56:48.442Z,2.78
2022-08-26T11:59:25.143Z,2.60
2022-08-26T12:01:54.604Z,2.70
2022-08-26T12:04:29.959Z,2.65
2022-08-26T12:07:00.538Z,2.42
2022-08-26T12:09:36.613Z,2.55
2022-08-26T12:12:17.253Z,2.75
2022-08-26T12:14:44.978Z,2.10
2022-08-26T12:17:22.472Z,2.22
2022-08-26T12:19:49.563Z,2.78
2022-08-26T12:22:38.683Z,2.10
2022-08-26T12:25:11.797Z,2.55
2022-08-26T12:27:44.651Z,2.60
2022-08-26T12:30:23.545Z,2.90
2022-08-26T12:33:22.529Z,2.08
2022-08-26T12:35:56.290Z,2.35
2022-08-26T12:38:26.588Z,2.00
2022-08-26T12:40:54.786Z,1.83
2022-08-26T12:43:42.299Z,1.75
2022-08-26T12:46:17.743Z,2.20
2022-08-26T12:48:49.451Z,1.85
2022-08-26T12:51:26.198Z,1.80
2022-08-26T12:53:54.635Z,2.20
2022-08-26T12:56:28.841Z,2.10
2022-08-26T12:59:23.068Z,2.58
2022-08-26T13:01:51.078Z,2.58
2022-08-26T13:04:43.737Z,2.65
2022-08-26T13:07:15.451Z,2.80
2022-08-26T13:09:42.386Z,2.28
2022-08-26T13:12:11.506Z,2.65
2022-08-26T13:14:38.538Z,2.50
2022-08-26T13:17:05.568Z,2.17
2022-08-26T13:19:32.921Z,2.30
2022-08-26T13:22:00.529Z,2.40
2022-08-26T13:24:40.088Z,2.05
2022-08-26T13:27:11.028Z,1.80
2022-08-26T13:29:39.455Z,2.05
2022-08-26T13:32:08.009Z,1.60
2022-08-26T13:34:38.754Z,1.33
2022-08-26T13:37:12.027Z,2.05
2022-08-26T13:39:39.382Z,1.90
2022-08-26T13:42:06.614Z,1.80
2022-08-26T13:44:33.524Z,1.92
2022-08-26T13:47:00.413Z,1.60
2022-08-26T13:49:27.520Z,1.70
2022-08-26T13:51:54.406Z,1.63
2022-08-26T13:54:21.830Z,1.77
2022-08-26T13:56:48.701Z,1.67
2022-08-26T13:59:15.604Z,1.58
2022-08-26T14:01:42.685Z,1.65
2022-08-26T14:04:09.519Z,1.60
2022-08-26T14:06:37.327Z,1.60
2022-08-26T14:09:04.766Z,1.30
2022-08-26T14:11:46.714Z,1.55
2022-08-26T14:14:18.552Z,1.92
2022-08-26T14:16:56.093Z,1.98
2022-08-26T14:19:31.323Z,2.05
2022-08-26T14:22:00.944Z,2.28
2022-08-26T14:24:28.968Z,1.92
2022-08-26T14:26:55.973Z,2.00
2022-08-26T14:29:22.817Z,2.00
2022-08-26T14:31:49.771Z,2.08
2022-08-26T14:34:16.980Z,1.90
2022-08-26T14:36:43.845Z,1.90
2022-08-26T14:39:13.172Z,2.05
2022-08-26T14:41:53.887Z,2.05
2022-08-26T14:44:29.690Z,1.45
2022-08-26T14:47:02.371Z,1.27
2022-08-26T14:49:31.204Z,1.60
2022-08-26T14:51:58.263Z,1.35
2022-08-26T14:54:25.254Z,1.40
2022-08-26T14:56:56.740Z,1.17
2022-08-26T14:59:30.686Z,1.45
2022-08-26T15:01:58.126Z,1.50
2022-08-26T15:04:25.429Z,1.58
2022-08-26T15:06:58.733Z,1.40
2022-08-26T15:09:29.053Z,1.60
2022-08-26T15:11:56.904Z,1.60
2022-08-26T15:14:25.471Z,1.70
2022-08-26T15:16:57.058Z,1.77
2022-08-26T15:19:26.744Z,1.65
2022-08-26T15:21:54.032Z,1.70
2022-08-26T15:24:24.145Z,1.75
2022-08-26T15:26:52.040Z,1.33
2022-08-26T15:29:19.420Z,2.00
2022-08-26T15:31:47.457Z,1.67
2022-08-26T15:34:17.009Z,1.52
2022-08-26T15:36:46.591Z,1.42
2022-08-26T15:39:17.071Z,1.70
2022-08-26T15:41:44.621Z,1.52
2022-08-26T15:44:14.097Z,1.42
2022-08-26T15:46:41.918Z,1.50
2022-08-26T15:49:09.135Z,1.35
2022-08-26T15:51:46.342Z,1.40
2022-08-26T15:54:16.620Z,1.50
2022-08-26T15:56:44.050Z,1.30
2022-08-26T15:59:12.081Z,1.33
2022-08-26T16:01:39.429Z,1.65
2022-08-26T16:04:07.329Z,1.60
2022-08-26T16:06:37.067Z,1.20
2022-08-26T16:09:05.731Z,1.40
2022-08-26T16:11:34.511Z,1.33
2022-08-26T16:14:02.409Z,2.00
2022-08-26T16:16:29.313Z,1.50
2022-08-26T16:18:56.226Z,1.13
2022-08-26T16:21:28.552Z,1.27
2022-08-26T16:23:57.591Z,1.65
2022-08-26T16:26:29.279Z,1.80
2022-08-26T16:28:56.164Z,1.90
2022-08-26T16:31:23.190Z,1.45
2022-08-26T16:33:50.214Z,1.40
2022-08-26T16:36:17.843Z,1.80
2022-08-26T16:38:53.363Z,1.40
2022-08-26T16:41:20.865Z,1.65
2022-08-26T16:43:48.261Z,1.40
2022-08-26T16:46:16.134Z,1.35
2022-08-26T16:48:45.140Z,1.40
2022-08-26T16:51:16.070Z,1.20
2022-08-26T16:53:44.746Z,1.27
2022-08-26T16:56:23.380Z,1.60
2022-08-26T16:58:55.015Z,1.38
2022-08-26T17:01:22.784Z,1.02
2022-08-26T17:03:50.803Z,1.60
2022-08-26T17:06:17.704Z,1.13
2022-08-26T17:08:44.991Z,1.35
2022-08-26T17:11:12.454Z,1.10
2022-08-26T17:13:39.710Z,1.13
2022-08-26T17:16:14.092Z,1.40
2022-08-26T17:18:41.410Z,1.15
2022-08-26T17:21:11.773Z,1.42
2022-08-26T17:23:40.932Z,1.33
2022-08-26T17:26:08.293Z,0.90
2022-08-26T17:28:35.291Z,1.27
2022-08-26T17:31:02.656Z,0.88
2022-08-26T17:33:29.902Z,1.00
2022-08-26T17:35:57.155Z,1.25
2022-08-26T17:38:25.145Z,1.17
2022-08-26T17:40:52.221Z,1.10
2022-08-26T17:43:19.204Z,1.25
2022-08-26T17:45:46.329Z,1.52
2022-08-26T17:48:13.954Z,1.02
2022-08-26T17:50:42.923Z,1.20
2022-08-26T17:53:18.743Z,1.23
2022-08-26T17:55:50.334Z,1.50
2022-08-26T17:58:22.706Z,1.27
2022-08-26T18:00:54.486Z,1.40
2022-08-26T18:03:22.311Z,1.60
2022-08-26T18:05:52.535Z,2.30
2022-08-26T18:08:21.019Z,1.25
2022-08-26T18:10:48.182Z,1.20
2022-08-26T18:13:16.162Z,1.50
2022-08-26T18:15:46.224Z,0.95
2022-08-26T18:18:14.890Z,1.00
2022-08-26T18:20:44.495Z,1.20
2022-08-26T18:23:13.002Z,1.05
2022-08-26T18:25:42.508Z,1.55
2022-08-26T18:28:10.106Z,1.40
2022-08-26T18:30:38.064Z,1.40
2022-08-26T18:33:05.184Z,1.00
2022-08-26T18:35:39.224Z,0.93
2022-08-26T18:38:10.753Z,1.40
2022-08-26T18:40:42.346Z,1.17
2022-08-26T18:43:10.375Z,0.90
2022-08-26T18:45:37.753Z,0.90
2022-08-26T18:48:04.844Z,0.88
2022-08-26T18:50:31.723Z,0.85
2022-08-26T18:52:58.552Z,1.17
2022-08-26T18:55:25.389Z,0.95
2022-08-26T18:57:52.304Z,1.05
2022-08-26T19:00:19.378Z,1.00
2022-08-26T19:02:47.047Z,0.90
2022-08-26T19:05:19.247Z,0.60
2022-08-26T19:07:46.613Z,0.98
2022-08-26T19:10:15.059Z,0.82
2022-08-26T19:12:42.459Z,0.70
2022-08-26T19:15:11.392Z,0.70
2022-08-26T19:17:38.314Z,1.48
2022-08-26T19:20:06.107Z,1.40
2022-08-26T19:22:33.078Z,1.50
2022-08-26T19:25:00.728Z,1.35
2022-08-26T19:27:27.733Z,1.58
2022-08-26T19:29:54.664Z,1.10
2022-08-26T19:32:24.126Z,1.40
2022-08-26T19:34:54.117Z,1.20
2022-08-26T19:37:22.049Z,1.05
2022-08-26T19:39:50.870Z,0.90
2022-08-26T19:42:17.776Z,1.20
2022-08-26T19:45:03.486Z,1.13
2022-08-26T19:47:31.224Z,1.35
2022-08-26T19:49:58.066Z,0.80
2022-08-26T19:52:30.032Z,1.08
2022-08-26T19:54:57.920Z,1.05
2022-08-26T19:57:24.989Z,0.65
2022-08-26T19:59:51.978Z,1.08
2022-08-26T20:02:19.174Z,1.40
2022-08-26T20:04:46.334Z,1.30
2022-08-26T20:07:18.132Z,1.10
2022-08-26T20:09:48.045Z,0.82
2022-08-26T20:12:19.509Z,1.25
2022-08-26T20:14:46.802Z,0.80
2022-08-26T20:17:15.950Z,1.05
2022-08-26T20:20:01.464Z,1.10
2022-08-26T20:22:28.790Z,1.08
2022-08-26T20:24:55.679Z,1.00
2022-08-26T20:27:27.502Z,1.00
2022-08-26T20:30:08.509Z,1.20
2022-08-26T20:32:37.023Z,0.85
2022-08-26T20:35:07.125Z,1.02
2022-08-26T20:37:37.259Z,0.98
2022-08-26T20:40:08.225Z,1.02
2022-08-26T20:42:35.710Z,1.15
2022-08-26T20:45:03.174Z,1.15
2022-08-26T20:47:30.379Z,1.40
2022-08-26T20:49:57.438Z,1.27
2022-08-26T20:52:24.805Z,1.30
2022-08-26T20:54:51.669Z,1.50
2022-08-26T20:57:18.982Z,1.48
2022-08-26T20:59:45.890Z,1.50
2022-08-26T21:02:12.761Z,1.30
2022-08-26T21:04:40.256Z,1.33
2022-08-26T21:07:07.220Z,1.13
2022-08-26T21:09:34.067Z,1.50
2022-08-26T21:12:01.808Z,1.02
2022-08-26T21:14:28.752Z,1.30
2022-08-26T21:16:59.627Z,1.40
2022-08-26T21:19:26.678Z,1.30
2022-08-26T21:21:53.643Z,1.90
2022-08-26T21:24:21.017Z,1.73
2022-08-26T21:26:48.017Z,1.60
2022-08-26T21:29:15.293Z,1.38
2022-08-26T21:31:46.395Z,1.40
2022-08-26T21:34:18.795Z,1.55
2022-08-26T21:36:47.810Z,1.30
2022-08-26T21:39:15.427Z,1.27
2022-08-26T21:41:44.652Z,1.13
2022-08-26T21:44:13.670Z,1.50
2022-08-26T21:46:41.835Z,1.30
2022-08-26T21:49:12.199Z,1.42
2022-08-26T21:51:45.429Z,1.27
2022-08-26T21:54:13.933Z,1.20
2022-08-26T21:56:45.995Z,1.00
2022-08-26T21:59:16.517Z,1.65
2022-08-26T22:01:43.544Z,1.38
2022-08-26T22:04:11.060Z,0.95
2022-08-26T22:06:51.457Z,1.80
2022-08-26T22:09:23.600Z,1.60
2022-08-26T22:11:52.924Z,1.40
2022-08-26T22:14:30.605Z,1.60
2022-08-26T22:16:59.432Z,1.50
2022-08-26T22:19:26.570Z,1.50
2022-08-26T22:21:55.457Z,1.17
2022-08-26T22:24:25.168Z,1.40
2022-08-26T22:26:53.217Z,1.25
2022-08-26T22:29:20.719Z,1.00
2022-08-26T22:31:47.681Z,1.50
2022-08-26T22:34:17.298Z,1.17
2022-08-26T22:36:47.580Z,1.27
2022-08-26T22:39:18.804Z,1.52
2022-08-26T22:41:48.477Z,1.20
2022-08-26T22:44:16.851Z,1.10
2022-08-26T22:46:45.050Z,1.52
2022-08-26T22:49:17.395Z,1.42
2022-08-26T22:51:45.686Z,1.40
2022-08-26T22:54:13.301Z,1.60
2022-08-26T22:56:40.814Z,1.30
2022-08-26T22:59:08.841Z,1.30
2022-08-26T23:01:40.289Z,1.52
2022-08-26T23:04:08.381Z,1.85
2022-08-26T23:06:40.362Z,1.85
2022-08-26T23:09:08.693Z,1.30
2022-08-26T23:11:38.456Z,1.35
2022-08-26T23:14:09.074Z,1.60
2022-08-26T23:16:41.350Z,0.90
2022-08-26T23:19:13.537Z,1.15
2022-08-26T23:21:41.119Z,1.02
2022-08-26T23:24:09.480Z,1.08
2022-08-26T23:26:38.493Z,1.17
2022-08-26T23:29:08.207Z,1.58
2022-08-26T23:31:38.201Z,1.13
2022-08-26T23:34:23.698Z,1.08
2022-08-26T23:36:51.083Z,1.17
2022-08-26T23:39:18.355Z,0.90
2022-08-26T23:41:45.849Z,1.30
2022-08-26T23:44:12.969Z,1.30
2022-08-26T23:46:40.094Z,1.10
2022-08-26T23:49:06.957Z,1.50
2022-08-26T23:51:52.751Z,1.48
2022-08-26T23:54:19.620Z,1.48
2022-08-26T23:56:46.679Z,1.17
2022-08-26T23:59:13.728Z,1.20
